createdAt,value
2019-01-24T00:05:58.821Z,32.21
2019-01-24T00:26:08.516Z,33.11
2019-01-24T00:46:18.103Z,29.31
2019-01-24T01:06:30.066Z,28.12
2019-01-24T01:26:29.851Z,27.18
2019-01-24T01:46:39.509Z,29.10
2019-01-24T02:06:49.137Z,30.95
2019-01-24T02:27:01.037Z,26.57
2019-01-24T02:47:00.666Z,26.92
2019-01-24T03:07:12.681Z,26.70
2019-01-24T03:27:12.327Z,26.94
2019-01-24T03:47:21.841Z,26.75
2019-01-24T04:07:31.384Z,26.90
2019-01-24T04:27:41.148Z,24.03
2019-01-24T04:47:50.763Z,23.23
2019-01-24T05:08:00.531Z,25.22
2019-01-24T05:28:10.356Z,22.85
2019-01-24T05:48:20.008Z,21.85
2019-01-24T06:08:34.246Z,23.61
2019-01-24T06:28:36.200Z,24.13
2019-01-24T06:48:35.773Z,19.73
2019-01-24T07:08:48.645Z,22.94
2019-01-24T07:28:48.261Z,20.13
2019-01-24T07:48:59.575Z,19.62
2019-01-24T08:09:06.404Z,20.13
2019-01-24T08:29:06.152Z,18.62
2019-01-24T08:49:15.879Z,16.77
2019-01-24T09:09:30.111Z,15.69
2019-01-24T09:29:30.817Z,13.81
2019-01-24T09:49:30.498Z,13.35
2019-01-24T10:09:40.091Z,15.44
2019-01-24T10:29:52.081Z,12.54
2019-01-24T10:49:53.999Z,10.49
2019-01-24T11:09:53.622Z,10.75
2019-01-24T11:30:03.264Z,12.76
2019-01-24T11:50:13.008Z,9.20
2019-01-24T12:10:24.885Z,11.30
2019-01-24T12:30:26.846Z,10.11
2019-01-24T12:50:26.574Z,11.03
2019-01-24T13:10:36.355Z,10.22
2019-01-24T13:30:45.803Z,10.83
2019-01-24T13:50:55.386Z,10.42
2019-01-24T14:11:09.488Z,13.78
2019-01-24T14:31:09.225Z,10.67
2019-01-24T14:51:19.036Z,9.45
2019-01-24T15:11:30.877Z,10.06
2019-01-24T15:31:30.624Z,15.22
2019-01-24T15:51:43.314Z,15.34
2019-01-24T16:11:43.062Z,19.24
2019-01-24T16:31:52.891Z,29.79
2019-01-24T16:52:04.775Z,33.30
2019-01-24T17:12:04.473Z,23.55
2019-01-24T17:32:14.130Z,23.23
2019-01-24T17:52:27.057Z,30.48
2019-01-24T18:12:30.952Z,21.92
2019-01-24T18:32:31.137Z,34.67
2019-01-24T18:52:31.238Z,37.40
2019-01-24T19:12:31.673Z,26.97
2019-01-24T19:32:31.438Z,22.47
2019-01-24T19:52:41.179Z,22.10
2019-01-24T20:12:51.487Z,19.15
2019-01-24T20:32:51.151Z,18.10
2019-01-24T20:53:00.700Z,20.39
2019-01-24T21:13:10.176Z,21.41
2019-01-24T21:33:19.711Z,19.87
2019-01-24T21:53:29.420Z,21.14
2019-01-24T22:13:38.905Z,28.79
2019-01-24T22:33:50.754Z,22.84
2019-01-24T22:53:50.238Z,24.80
2019-01-24T23:14:02.164Z,45.51
2019-01-24T23:34:01.575Z,47.96
2019-01-24T23:54:11.012Z,48.66
